BAW32MA EGCC-EGLL
Flight info
| Callsign | BAW32MA |
|---|---|
| Flight time | N/A |
| Altitude | 19000 |
| Route | LISTO L612 HON |
| Aircraft | A320/M-SDE3FGHIRWY/LB1 |
Departure
| Time | 2026-05-06 21:11 |
|---|---|
| Airport | Manchester Airport (EGCC) |
Arrival
| Time | N/A |
|---|---|
| Airport | London Heathrow Airport (EGLL) |
| Time | Latitude | Longitude | Altitude | Speed | Heading |
|---|---|---|---|---|---|
| 2026-05-06 20:59 | 53.35885 | -2.27534 | 260 ft | 0 kts | 93° |
| 2026-05-06 21:03 | 53.35885 | -2.27549 | 260 ft | 2 kts | 92° |
| 2026-05-06 21:03 | 53.35886 | -2.27574 | 260 ft | 2 kts | 93° |
| 2026-05-06 21:03 | 53.35886 | -2.27599 | 260 ft | 2 kts | 101° |
| 2026-05-06 21:04 | 53.35893 | -2.27622 | 260 ft | 2 kts | 132° |
| 2026-05-06 21:04 | 53.35905 | -2.27637 | 260 ft | 2 kts | 159° |
| 2026-05-06 21:04 | 53.35918 | -2.27642 | 260 ft | 0 kts | 182° |
| 2026-05-06 21:04 | 53.35925 | -2.27641 | 260 ft | 1 kts | 187° |
| 2026-05-06 21:05 | 53.35926 | -2.27640 | 260 ft | 0 kts | 186° |
| 2026-05-06 21:06 | 53.35925 | -2.27640 | 260 ft | 0 kts | 186° |
| 2026-05-06 21:06 | 53.35866 | -2.27650 | 260 ft | 11 kts | 185° |
| 2026-05-06 21:06 | 53.35780 | -2.27664 | 260 ft | 12 kts | 184° |
| 2026-05-06 21:07 | 53.35699 | -2.27621 | 260 ft | 10 kts | 158° |
| 2026-05-06 21:07 | 53.35630 | -2.27639 | 260 ft | 11 kts | 220° |
| 2026-05-06 21:07 | 53.35571 | -2.27736 | 260 ft | 12 kts | 224° |
| 2026-05-06 21:07 | 53.35507 | -2.27839 | 260 ft | 13 kts | 224° |
| 2026-05-06 21:08 | 53.35439 | -2.27948 | 260 ft | 13 kts | 224° |
| 2026-05-06 21:08 | 53.35368 | -2.28063 | 260 ft | 14 kts | 225° |
| 2026-05-06 21:08 | 53.35294 | -2.28184 | 260 ft | 15 kts | 226° |
| 2026-05-06 21:08 | 53.35222 | -2.28320 | 260 ft | 15 kts | 230° |
| 2026-05-06 21:09 | 53.35153 | -2.28462 | 260 ft | 16 kts | 231° |
| 2026-05-06 21:09 | 53.35081 | -2.28609 | 260 ft | 16 kts | 231° |
| 2026-05-06 21:09 | 53.35006 | -2.28753 | 260 ft | 16 kts | 228° |
| 2026-05-06 21:09 | 53.34925 | -2.28898 | 260 ft | 16 kts | 226° |
| 2026-05-06 21:10 | 53.34843 | -2.29033 | 260 ft | 15 kts | 216° |
| 2026-05-06 21:10 | 53.34750 | -2.29067 | 260 ft | 13 kts | 169° |
| 2026-05-06 21:10 | 53.34672 | -2.28988 | 260 ft | 13 kts | 112° |
| 2026-05-06 21:10 | 53.34769 | -2.28743 | 260 ft | 57 kts | 51° |
| 2026-05-06 21:11 | 53.35176 | -2.27903 | 260 ft | 124 kts | 51° |
| 2026-05-06 21:11 | 53.35829 | -2.26558 | 329 ft | 169 kts | 52° |
| 2026-05-06 21:11 | 53.36575 | -2.25019 | 966 ft | 170 kts | 53° |
| 2026-05-06 21:11 | 53.37287 | -2.23473 | 1760 ft | 167 kts | 63° |
| 2026-05-06 21:12 | 53.37470 | -2.21634 | 2391 ft | 169 kts | 102° |
| 2026-05-06 21:12 | 53.37157 | -2.19663 | 2905 ft | 184 kts | 111° |
| 2026-05-06 21:12 | 53.36353 | -2.17928 | 3365 ft | 203 kts | 144° |
| 2026-05-06 21:12 | 53.35070 | -2.16738 | 3924 ft | 221 kts | 162° |
| 2026-05-06 21:13 | 53.33492 | -2.16439 | 4500 ft | 238 kts | 185° |
| 2026-05-06 21:13 | 53.31796 | -2.16807 | 5085 ft | 256 kts | 189° |
| 2026-05-06 21:13 | 53.30010 | -2.17227 | 5785 ft | 268 kts | 188° |
| 2026-05-06 21:13 | 53.28139 | -2.17607 | 6686 ft | 272 kts | 188° |
| 2026-05-06 21:14 | 53.26261 | -2.17947 | 7549 ft | 277 kts | 187° |
| 2026-05-06 21:14 | 53.24319 | -2.18275 | 8424 ft | 282 kts | 187° |
| 2026-05-06 21:14 | 53.22363 | -2.18592 | 9275 ft | 286 kts | 187° |
| 2026-05-06 21:14 | 53.20372 | -2.18909 | 10097 ft | 291 kts | 186° |
| 2026-05-06 21:15 | 53.18333 | -2.19230 | 10738 ft | 302 kts | 186° |
| 2026-05-06 21:15 | 53.16188 | -2.19543 | 11147 ft | 320 kts | 183° |
| 2026-05-06 21:15 | 53.13903 | -2.19275 | 11537 ft | 339 kts | 170° |
| 2026-05-06 21:15 | 53.11620 | -2.18109 | 11895 ft | 358 kts | 159° |
| 2026-05-06 21:16 | 53.09269 | -2.16494 | 12274 ft | 373 kts | 158° |
| 2026-05-06 21:16 | 53.06862 | -2.14784 | 12915 ft | 380 kts | 158° |
| 2026-05-06 21:16 | 53.04432 | -2.13063 | 13650 ft | 383 kts | 158° |
| 2026-05-06 21:16 | 53.01976 | -2.11340 | 14321 ft | 388 kts | 159° |
| 2026-05-06 21:17 | 52.99480 | -2.09605 | 14989 ft | 392 kts | 159° |
| 2026-05-06 21:17 | 52.96960 | -2.07863 | 15667 ft | 395 kts | 159° |
| 2026-05-06 21:17 | 52.94424 | -2.06116 | 16311 ft | 399 kts | 159° |
| 2026-05-06 21:17 | 52.91844 | -2.04345 | 16948 ft | 402 kts | 159° |
| 2026-05-06 21:18 | 52.89278 | -2.02586 | 17572 ft | 405 kts | 159° |
| 2026-05-06 21:18 | 52.86667 | -2.00805 | 18181 ft | 408 kts | 159° |
| 2026-05-06 21:18 | 52.84005 | -1.98994 | 18731 ft | 412 kts | 159° |
| 2026-05-06 21:18 | 52.81377 | -1.97205 | 18988 ft | 413 kts | 159° |
| 2026-05-06 21:19 | 52.78707 | -1.95387 | 19016 ft | 413 kts | 159° |
| 2026-05-06 21:19 | 52.76143 | -1.93641 | 19018 ft | 412 kts | 159° |
| 2026-05-06 21:19 | 52.73426 | -1.91793 | 19013 ft | 412 kts | 159° |
| 2026-05-06 21:19 | 52.70763 | -1.89982 | 19022 ft | 412 kts | 159° |
| 2026-05-06 21:20 | 52.68120 | -1.88188 | 19006 ft | 412 kts | 159° |
| 2026-05-06 21:20 | 52.65478 | -1.86398 | 19020 ft | 412 kts | 159° |
| 2026-05-06 21:20 | 52.62828 | -1.84604 | 19020 ft | 412 kts | 159° |
| 2026-05-06 21:20 | 52.60199 | -1.82826 | 19018 ft | 413 kts | 159° |
| 2026-05-06 21:21 | 52.57537 | -1.81028 | 19022 ft | 413 kts | 159° |
| 2026-05-06 21:21 | 52.54908 | -1.79255 | 19029 ft | 413 kts | 158° |
| 2026-05-06 21:21 | 52.52228 | -1.77449 | 19031 ft | 412 kts | 158° |
| 2026-05-06 21:21 | 52.49575 | -1.75665 | 19031 ft | 412 kts | 158° |
| 2026-05-06 21:22 | 52.46947 | -1.73897 | 19031 ft | 411 kts | 158° |
| 2026-05-06 21:22 | 52.44314 | -1.72129 | 19030 ft | 411 kts | 158° |
| 2026-05-06 21:22 | 52.41667 | -1.70355 | 19030 ft | 411 kts | 158° |
| 2026-05-06 21:22 | 52.39008 | -1.68572 | 19031 ft | 411 kts | 158° |
| 2026-05-06 21:23 | 52.36437 | -1.66509 | 19039 ft | 412 kts | 151° |
| 2026-05-06 21:23 | 52.34053 | -1.63990 | 19035 ft | 413 kts | 144° |
| 2026-05-06 21:23 | 52.31831 | -1.61048 | 19024 ft | 414 kts | 140° |
| 2026-05-06 21:23 | 52.29635 | -1.57927 | 19040 ft | 414 kts | 139° |
| 2026-05-06 21:24 | 52.27488 | -1.54851 | 19045 ft | 414 kts | 139° |
| 2026-05-06 21:24 | 52.25317 | -1.51761 | 19036 ft | 414 kts | 139° |
| 2026-05-06 21:24 | 52.23136 | -1.48682 | 18783 ft | 415 kts | 139° |